Aviation weather information 2019-11-17 23:27 UTC

TAF(FCEO32)
FCEO32 EETN 172100
TAF EETU 172100Z 1722/1804 12004KT 0300 FG VV002 TEMPO 1722/1804
     0700 FG VV003=

TAF(FTEO31)
FTEO31 EETN 172300
TAF EETN 172316Z 1800/1824 15008KT 0500 FG VV002 TEMPO 1800/1806
     2000 BR OVC003 BECMG 1806/1808 3000 BR OVC005 TEMPO 1810/1814
     6000 SCT005 BKN010 PROB40 TEMPO 1814/1819 09010KT 1200 DZ BR
     OVC002 BECMG 1819/1821 9999 SCT006 BKN012=

Weather observation (METAR/SPECI)
SPECI EETN 172324Z 19008KT 1000 R26/P2000N BR OVC001 05/04 Q1022
R08/290195 =
METAR EEEI 172320Z AUTO 15004KT 1200 0800NE R06/1000U FG VV002 05/05
Q1022=
METAR EETU 172320Z 15003KT 120V190 0250 R08/0700N R26/1300N FG VV003
05/05 Q1023=
METAR EEPU 172250Z NIL=
SPECI EEKE 172313Z AUTO 10004KT 4600NDV BR BKN005 06/06 Q1021=
METAR EEKA 172250Z NIL=